sensor_id;sensor_type;location;lat;lon;timestamp;temperature;humidity
41447;DHT22;27185;52.040;4.490;2023-03-01T00:01:11;3.30;99.90
41447;DHT22;27185;52.040;4.490;2023-03-01T00:03:58;3.20;99.90
41447;DHT22;27185;52.040;4.490;2023-03-01T00:06:44;3.20;99.90
41447;DHT22;27185;52.040;4.490;2023-03-01T00:09:32;3.20;99.90
41447;DHT22;27185;52.040;4.490;2023-03-01T00:12:18;3.10;99.90
41447;DHT22;27185;52.040;4.490;2023-03-01T00:15:04;3.10;99.90
41447;DHT22;27185;52.040;4.490;2023-03-01T00:17:50;3.10;99.90
41447;DHT22;27185;52.040;4.490;2023-03-01T00:20:35;3.10;99.90
41447;DHT22;27185;52.040;4.490;2023-03-01T00:23:21;3.10;99.90
41447;DHT22;27185;52.040;4.490;2023-03-01T00:26:09;3.00;99.90
41447;DHT22;27185;52.040;4.490;2023-03-01T00:28:57;3.00;99.90
41447;DHT22;27185;52.040;4.490;2023-03-01T00:31:43;3.00;99.90
41447;DHT22;27185;52.040;4.490;2023-03-01T00:34:28;3.00;99.90
41447;DHT22;27185;52.040;4.490;2023-03-01T00:37:14;3.00;99.90
41447;DHT22;27185;52.040;4.490;2023-03-01T00:39:59;2.90;99.90
41447;DHT22;27185;52.040;4.490;2023-03-01T00:42:45;2.90;99.90
41447;DHT22;27185;52.040;4.490;2023-03-01T00:45:32;2.90;99.90
41447;DHT22;27185;52.040;4.490;2023-03-01T00:48:18;2.80;99.90
41447;DHT22;27185;52.040;4.490;2023-03-01T00:51:19;2.80;99.90
41447;DHT22;27185;52.040;4.490;2023-03-01T00:54:05;2.80;99.90
41447;DHT22;27185;52.040;4.490;2023-03-01T00:56:51;2.70;99.90
41447;DHT22;27185;52.040;4.490;2023-03-01T00:59:36;2.70;99.90
41447;DHT22;27185;52.040;4.490;2023-03-01T01:02:22;2.70;99.90
41447;DHT22;27185;52.040;4.490;2023-03-01T01:05:08;2.70;99.90
41447;DHT22;27185;52.040;4.490;2023-03-01T01:07:53;2.70;99.90
41447;DHT22;27185;52.040;4.490;2023-03-01T01:10:39;2.70;99.90
41447;DHT22;27185;52.040;4.490;2023-03-01T01:13:25;2.60;99.90
41447;DHT22;27185;52.040;4.490;2023-03-01T01:16:10;2.60;99.90
41447;DHT22;27185;52.040;4.490;2023-03-01T01:18:57;2.60;99.90
41447;DHT22;27185;52.040;4.490;2023-03-01T01:21:42;2.60;99.90
41447;DHT22;27185;52.040;4.490;2023-03-01T01:24:28;2.50;99.90
41447;DHT22;27185;52.040;4.490;2023-03-01T01:27:14;2.50;99.90
41447;DHT22;27185;52.040;4.490;2023-03-01T01:29:59;2.50;99.90
41447;DHT22;27185;52.040;4.490;2023-03-01T01:32:45;2.50;99.90
41447;DHT22;27185;52.040;4.490;2023-03-01T01:35:31;2.50;99.90
41447;DHT22;27185;52.040;4.490;2023-03-01T01:38:16;2.50;99.90
41447;DHT22;27185;52.040;4.490;2023-03-01T01:41:03;2.50;99.90
41447;DHT22;27185;52.040;4.490;2023-03-01T01:47:03;2.50;99.90
41447;DHT22;27185;52.040;4.490;2023-03-01T01:49:53;2.50;99.90
41447;DHT22;27185;52.040;4.490;2023-03-01T01:52:39;2.40;99.90
41447;DHT22;27185;52.040;4.490;2023-03-01T01:55:27;2.40;99.90
41447;DHT22;27185;52.040;4.490;2023-03-01T01:58:16;2.40;99.90
41447;DHT22;27185;52.040;4.490;2023-03-01T02:01:04;2.40;99.90
41447;DHT22;27185;52.040;4.490;2023-03-01T02:03:50;2.40;99.90
41447;DHT22;27185;52.040;4.490;2023-03-01T02:06:39;2.40;99.90
41447;DHT22;27185;52.040;4.490;2023-03-01T02:09:27;2.30;99.90
41447;DHT22;27185;52.040;4.490;2023-03-01T02:12:18;2.30;99.90
41447;DHT22;27185;52.040;4.490;2023-03-01T02:15:05;2.30;99.90
41447;DHT22;27185;52.040;4.490;2023-03-01T02:17:52;2.30;99.90
41447;DHT22;27185;52.040;4.490;2023-03-01T02:20:49;2.20;99.90
41447;DHT22;27185;52.040;4.490;2023-03-01T02:23:36;2.20;99.90
41447;DHT22;27185;52.040;4.490;2023-03-01T02:26:40;2.20;99.90
41447;DHT22;27185;52.040;4.490;2023-03-01T02:29:27;2.20;99.90
41447;DHT22;27185;52.040;4.490;2023-03-01T02:32:14;2.10;99.90
41447;DHT22;27185;52.040;4.490;2023-03-01T02:35:01;2.10;99.90
41447;DHT22;27185;52.040;4.490;2023-03-01T02:37:48;2.00;99.90
41447;DHT22;27185;52.040;4.490;2023-03-01T02:40:34;2.00;99.90
41447;DHT22;27185;52.040;4.490;2023-03-01T02:43:24;2.00;99.90
41447;DHT22;27185;52.040;4.490;2023-03-01T02:46:24;2.00;99.90
41447;DHT22;27185;52.040;4.490;2023-03-01T02:49:23;2.00;99.90
41447;DHT22;27185;52.040;4.490;2023-03-01T02:55:20;1.90;99.90
41447;DHT22;27185;52.040;4.490;2023-03-01T02:58:06;1.90;99.90
41447;DHT22;27185;52.040;4.490;2023-03-01T03:00:52;1.90;99.90
41447;DHT22;27185;52.040;4.490;2023-03-01T03:03:38;1.90;99.90
41447;DHT22;27185;52.040;4.490;2023-03-01T03:06:23;1.90;99.90
41447;DHT22;27185;52.040;4.490;2023-03-01T03:09:09;2.00;99.90
41447;DHT22;27185;52.040;4.490;2023-03-01T03:11:55;2.00;99.90
41447;DHT22;27185;52.040;4.490;2023-03-01T03:14:41;2.00;99.90
41447;DHT22;27185;52.040;4.490;2023-03-01T03:17:26;2.00;99.90
41447;DHT22;27185;52.040;4.490;2023-03-01T03:20:14;2.00;99.90
41447;DHT22;27185;52.040;4.490;2023-03-01T03:23:04;2.10;99.90
41447;DHT22;27185;52.040;4.490;2023-03-01T03:25:50;2.10;99.90
41447;DHT22;27185;52.040;4.490;2023-03-01T03:28:36;2.10;99.90
41447;DHT22;27185;52.040;4.490;2023-03-01T03:31:25;2.10;99.90
41447;DHT22;27185;52.040;4.490;2023-03-01T03:34:11;2.10;99.90
41447;DHT22;27185;52.040;4.490;2023-03-01T03:37:03;2.10;99.90
41447;DHT22;27185;52.040;4.490;2023-03-01T03:39:48;2.00;99.90
41447;DHT22;27185;52.040;4.490;2023-03-01T03:42:34;2.00;99.90
41447;DHT22;27185;52.040;4.490;2023-03-01T03:45:19;2.00;99.90
41447;DHT22;27185;52.040;4.490;2023-03-01T03:48:07;2.00;99.90
41447;DHT22;27185;52.040;4.490;2023-03-01T03:50:55;2.00;99.90
41447;DHT22;27185;52.040;4.490;2023-03-01T03:53:42;2.00;99.90
41447;DHT22;27185;52.040;4.490;2023-03-01T03:56:27;1.90;99.90
41447;DHT22;27185;52.040;4.490;2023-03-01T03:59:13;1.90;99.90
41447;DHT22;27185;52.040;4.490;2023-03-01T04:01:58;1.90;99.90
41447;DHT22;27185;52.040;4.490;2023-03-01T04:04:44;1.90;99.90
41447;DHT22;27185;52.040;4.490;2023-03-01T04:07:30;1.90;99.90
41447;DHT22;27185;52.040;4.490;2023-03-01T04:10:17;1.90;99.90
41447;DHT22;27185;52.040;4.490;2023-03-01T04:13:04;1.90;99.90
41447;DHT22;27185;52.040;4.490;2023-03-01T04:15:51;1.90;99.90
41447;DHT22;27185;52.040;4.490;2023-03-01T04:18:36;2.00;99.90
41447;DHT22;27185;52.040;4.490;2023-03-01T04:21:22;2.00;99.90
41447;DHT22;27185;52.040;4.490;2023-03-01T04:24:08;2.00;99.90
41447;DHT22;27185;52.040;4.490;2023-03-01T04:26:54;2.00;99.90
41447;DHT22;27185;52.040;4.490;2023-03-01T04:29:40;2.00;99.90
41447;DHT22;27185;52.040;4.490;2023-03-01T04:32:25;2.00;99.90
41447;DHT22;27185;52.040;4.490;2023-03-01T04:35:11;2.00;99.90
41447;DHT22;27185;52.040;4.490;2023-03-01T04:37:57;2.00;99.90
41447;DHT22;27185;52.040;4.490;2023-03-01T04:40:42;2.00;99.90
41447;DHT22;27185;52.040;4.490;2023-03-01T04:43:28;2.00;99.90
41447;DHT22;27185;52.040;4.490;2023-03-01T04:46:16;1.90;99.90
41447;DHT22;27185;52.040;4.490;2023-03-01T04:49:03;1.90;99.90
41447;DHT22;27185;52.040;4.490;2023-03-01T04:51:48;1.90;99.90
41447;DHT22;27185;52.040;4.490;2023-03-01T04:54:35;1.90;99.90
41447;DHT22;27185;52.040;4.490;2023-03-01T04:57:20;1.80;99.90
41447;DHT22;27185;52.040;4.490;2023-03-01T05:00:08;1.80;99.90
41447;DHT22;27185;52.040;4.490;2023-03-01T05:03:05;1.80;99.90
41447;DHT22;27185;52.040;4.490;2023-03-01T05:05:52;1.70;99.90
41447;DHT22;27185;52.040;4.490;2023-03-01T05:08:41;1.70;99.90
41447;DHT22;27185;52.040;4.490;2023-03-01T05:11:27;1.60;99.90
41447;DHT22;27185;52.040;4.490;2023-03-01T05:14:17;1.60;99.90
41447;DHT22;27185;52.040;4.490;2023-03-01T05:17:02;1.50;99.90
41447;DHT22;27185;52.040;4.490;2023-03-01T05:19:49;1.50;99.90
41447;DHT22;27185;52.040;4.490;2023-03-01T05:22:35;1.40;99.90
41447;DHT22;27185;52.040;4.490;2023-03-01T05:25:21;1.30;99.90
41447;DHT22;27185;52.040;4.490;2023-03-01T05:28:13;1.30;99.90
41447;DHT22;27185;52.040;4.490;2023-03-01T05:30:59;1.20;99.90
41447;DHT22;27185;52.040;4.490;2023-03-01T05:33:44;1.20;99.90
41447;DHT22;27185;52.040;4.490;2023-03-01T05:36:30;1.10;99.90
41447;DHT22;27185;52.040;4.490;2023-03-01T05:39:16;1.00;99.90
41447;DHT22;27185;52.040;4.490;2023-03-01T05:42:02;1.00;99.90
41447;DHT22;27185;52.040;4.490;2023-03-01T05:44:47;0.90;99.90
41447;DHT22;27185;52.040;4.490;2023-03-01T05:47:33;0.90;99.90
41447;DHT22;27185;52.040;4.490;2023-03-01T05:50:21;0.80;99.90
41447;DHT22;27185;52.040;4.490;2023-03-01T05:53:11;0.70;99.90
41447;DHT22;27185;52.040;4.490;2023-03-01T05:55:57;0.70;99.90
41447;DHT22;27185;52.040;4.490;2023-03-01T05:58:42;0.70;99.90
41447;DHT22;27185;52.040;4.490;2023-03-01T06:01:28;0.60;99.90
41447;DHT22;27185;52.040;4.490;2023-03-01T06:04:14;0.60;99.90
41447;DHT22;27185;52.040;4.490;2023-03-01T06:07:00;0.60;99.90
41447;DHT22;27185;52.040;4.490;2023-03-01T06:09:45;0.60;99.90
41447;DHT22;27185;52.040;4.490;2023-03-01T06:12:36;0.60;99.90
41447;DHT22;27185;52.040;4.490;2023-03-01T06:15:22;0.60;99.90
41447;DHT22;27185;52.040;4.490;2023-03-01T06:18:08;0.60;99.90
41447;DHT22;27185;52.040;4.490;2023-03-01T06:20:54;0.70;99.90
41447;DHT22;27185;52.040;4.490;2023-03-01T06:23:40;0.70;99.90
41447;DHT22;27185;52.040;4.490;2023-03-01T06:26:26;0.80;99.90
41447;DHT22;27185;52.040;4.490;2023-03-01T06:29:12;0.90;99.90
41447;DHT22;27185;52.040;4.490;2023-03-01T06:31:57;0.90;99.90
41447;DHT22;27185;52.040;4.490;2023-03-01T06:34:43;1.00;99.90
41447;DHT22;27185;52.040;4.490;2023-03-01T06:37:29;1.00;99.90
41447;DHT22;27185;52.040;4.490;2023-03-01T06:40:15;1.00;99.90
41447;DHT22;27185;52.040;4.490;2023-03-01T06:43:01;1.00;99.90
41447;DHT22;27185;52.040;4.490;2023-03-01T06:45:47;1.00;99.90
41447;DHT22;27185;52.040;4.490;2023-03-01T06:48:33;1.00;99.90
41447;DHT22;27185;52.040;4.490;2023-03-01T06:51:19;0.90;99.90
41447;DHT22;27185;52.040;4.490;2023-03-01T06:54:05;0.90;99.90
41447;DHT22;27185;52.040;4.490;2023-03-01T06:56:50;0.80;99.90
41447;DHT22;27185;52.040;4.490;2023-03-01T06:59:36;0.80;99.90
41447;DHT22;27185;52.040;4.490;2023-03-01T07:02:22;0.70;99.90
41447;DHT22;27185;52.040;4.490;2023-03-01T07:05:07;0.60;99.90
41447;DHT22;27185;52.040;4.490;2023-03-01T07:07:53;0.60;99.90
41447;DHT22;27185;52.040;4.490;2023-03-01T07:10:40;0.60;99.90
41447;DHT22;27185;52.040;4.490;2023-03-01T07:13:26;0.60;99.90
41447;DHT22;27185;52.040;4.490;2023-03-01T07:16:11;0.50;99.90
41447;DHT22;27185;52.040;4.490;2023-03-01T07:18:57;0.50;99.90
41447;DHT22;27185;52.040;4.490;2023-03-01T07:21:43;0.50;99.90
41447;DHT22;27185;52.040;4.490;2023-03-01T07:24:28;0.50;99.90
41447;DHT22;27185;52.040;4.490;2023-03-01T07:27:14;0.50;99.90
41447;DHT22;27185;52.040;4.490;2023-03-01T07:30:00;0.50;99.90
41447;DHT22;27185;52.040;4.490;2023-03-01T07:32:46;0.50;99.90
41447;DHT22;27185;52.040;4.490;2023-03-01T07:35:31;0.60;99.90
41447;DHT22;27185;52.040;4.490;2023-03-01T07:38:18;0.60;99.90
41447;DHT22;27185;52.040;4.490;2023-03-01T07:41:04;0.70;99.90
41447;DHT22;27185;52.040;4.490;2023-03-01T07:43:50;0.70;99.90
41447;DHT22;27185;52.040;4.490;2023-03-01T07:46:36;0.70;99.90
41447;DHT22;27185;52.040;4.490;2023-03-01T07:49:22;0.80;99.90
41447;DHT22;27185;52.040;4.490;2023-03-01T07:52:10;0.80;99.90
41447;DHT22;27185;52.040;4.490;2023-03-01T07:54:56;0.90;99.90
41447;DHT22;27185;52.040;4.490;2023-03-01T07:57:42;1.00;99.90
41447;DHT22;27185;52.040;4.490;2023-03-01T08:00:28;1.10;99.90
41447;DHT22;27185;52.040;4.490;2023-03-01T08:03:13;1.20;99.90
41447;DHT22;27185;52.040;4.490;2023-03-01T08:06:00;1.30;99.90
41447;DHT22;27185;52.040;4.490;2023-03-01T08:08:46;1.30;99.90
41447;DHT22;27185;52.040;4.490;2023-03-01T08:11:31;1.40;99.90
41447;DHT22;27185;52.040;4.490;2023-03-01T08:14:17;1.50;99.90
41447;DHT22;27185;52.040;4.490;2023-03-01T08:17:03;1.60;99.90
41447;DHT22;27185;52.040;4.490;2023-03-01T08:19:48;1.70;99.90
41447;DHT22;27185;52.040;4.490;2023-03-01T08:22:34;1.80;99.90
41447;DHT22;27185;52.040;4.490;2023-03-01T08:25:20;1.90;99.90
41447;DHT22;27185;52.040;4.490;2023-03-01T08:28:05;2.00;99.90
41447;DHT22;27185;52.040;4.490;2023-03-01T08:30:51;2.10;99.90
41447;DHT22;27185;52.040;4.490;2023-03-01T08:33:37;2.10;99.90
41447;DHT22;27185;52.040;4.490;2023-03-01T08:36:31;2.20;99.90
41447;DHT22;27185;52.040;4.490;2023-03-01T08:39:19;2.30;99.90
41447;DHT22;27185;52.040;4.490;2023-03-01T08:42:05;2.30;99.90
41447;DHT22;27185;52.040;4.490;2023-03-01T08:44:50;2.40;99.90
41447;DHT22;27185;52.040;4.490;2023-03-01T08:47:36;2.50;99.90
41447;DHT22;27185;52.040;4.490;2023-03-01T08:50:23;2.60;99.90
41447;DHT22;27185;52.040;4.490;2023-03-01T08:53:09;2.60;99.90
41447;DHT22;27185;52.040;4.490;2023-03-01T08:55:55;2.70;99.90
41447;DHT22;27185;52.040;4.490;2023-03-01T08:58:46;2.80;99.90
41447;DHT22;27185;52.040;4.490;2023-03-01T09:01:32;2.80;99.90
41447;DHT22;27185;52.040;4.490;2023-03-01T09:04:18;2.90;99.90
41447;DHT22;27185;52.040;4.490;2023-03-01T09:07:03;3.00;99.90
41447;DHT22;27185;52.040;4.490;2023-03-01T09:09:49;3.10;99.90
41447;DHT22;27185;52.040;4.490;2023-03-01T09:12:38;3.20;99.90
41447;DHT22;27185;52.040;4.490;2023-03-01T09:15:24;3.30;99.90
41447;DHT22;27185;52.040;4.490;2023-03-01T09:18:09;3.40;99.90
41447;DHT22;27185;52.040;4.490;2023-03-01T09:21:07;3.50;99.90
41447;DHT22;27185;52.040;4.490;2023-03-01T09:23:55;3.60;99.90
41447;DHT22;27185;52.040;4.490;2023-03-01T09:26:42;3.70;99.90
41447;DHT22;27185;52.040;4.490;2023-03-01T09:29:27;3.70;99.90
41447;DHT22;27185;52.040;4.490;2023-03-01T09:32:13;3.80;99.90
41447;DHT22;27185;52.040;4.490;2023-03-01T09:34:59;3.90;99.90
41447;DHT22;27185;52.040;4.490;2023-03-01T09:37:50;4.10;99.90
41447;DHT22;27185;52.040;4.490;2023-03-01T09:40:37;4.20;99.90
41447;DHT22;27185;52.040;4.490;2023-03-01T09:46:37;4.40;99.90
41447;DHT22;27185;52.040;4.490;2023-03-01T09:49:28;4.60;99.90
41447;DHT22;27185;52.040;4.490;2023-03-01T09:52:36;4.70;99.90
41447;DHT22;27185;52.040;4.490;2023-03-01T09:55:31;4.80;99.90
41447;DHT22;27185;52.040;4.490;2023-03-01T09:58:39;5.00;99.90
41447;DHT22;27185;52.040;4.490;2023-03-01T10:01:41;5.20;99.90
41447;DHT22;27185;52.040;4.490;2023-03-01T10:10:29;5.50;99.90
41447;DHT22;27185;52.040;4.490;2023-03-01T10:13:21;5.60;99.90
41447;DHT22;27185;52.040;4.490;2023-03-01T10:16:16;5.70;99.90
41447;DHT22;27185;52.040;4.490;2023-03-01T10:19:05;5.80;99.90
41447;DHT22;27185;52.040;4.490;2023-03-01T10:21:51;5.90;99.90
41447;DHT22;27185;52.040;4.490;2023-03-01T10:24:38;6.00;99.90
41447;DHT22;27185;52.040;4.490;2023-03-01T10:30:38;6.20;99.90
41447;DHT22;27185;52.040;4.490;2023-03-01T10:33:35;6.30;99.90
41447;DHT22;27185;52.040;4.490;2023-03-01T10:36:23;6.40;99.90
41447;DHT22;27185;52.040;4.490;2023-03-01T10:39:15;6.50;99.90
41447;DHT22;27185;52.040;4.490;2023-03-01T10:42:05;6.60;99.90
41447;DHT22;27185;52.040;4.490;2023-03-01T10:44:51;6.70;99.90
41447;DHT22;27185;52.040;4.490;2023-03-01T10:47:36;6.80;99.90
41447;DHT22;27185;52.040;4.490;2023-03-01T10:50:23;6.90;99.90
41447;DHT22;27185;52.040;4.490;2023-03-01T10:56:16;7.10;99.90
41447;DHT22;27185;52.040;4.490;2023-03-01T10:59:09;7.10;99.90
41447;DHT22;27185;52.040;4.490;2023-03-01T11:02:27;7.30;99.90
41447;DHT22;27185;52.040;4.490;2023-03-01T11:08:02;7.40;99.90
41447;DHT22;27185;52.040;4.490;2023-03-01T11:10:48;7.40;99.90
41447;DHT22;27185;52.040;4.490;2023-03-01T11:13:35;7.50;99.90
41447;DHT22;27185;52.040;4.490;2023-03-01T11:16:31;7.60;99.90
41447;DHT22;27185;52.040;4.490;2023-03-01T11:19:20;7.60;99.90
41447;DHT22;27185;52.040;4.490;2023-03-01T11:22:17;7.60;99.90
41447;DHT22;27185;52.040;4.490;2023-03-01T11:25:07;7.70;99.90
41447;DHT22;27185;52.040;4.490;2023-03-01T11:27:57;7.70;99.90
41447;DHT22;27185;52.040;4.490;2023-03-01T11:30:57;7.80;99.90
41447;DHT22;27185;52.040;4.490;2023-03-01T11:33:48;7.90;99.90
41447;DHT22;27185;52.040;4.490;2023-03-01T11:36:44;8.00;99.90
41447;DHT22;27185;52.040;4.490;2023-03-01T11:40:16;8.00;99.90
41447;DHT22;27185;52.040;4.490;2023-03-01T11:43:33;8.10;99.90
41447;DHT22;27185;52.040;4.490;2023-03-01T11:49:45;8.20;99.90
41447;DHT22;27185;52.040;4.490;2023-03-01T12:08:07;8.70;99.50
41447;DHT22;27185;52.040;4.490;2023-03-01T12:23:02;11.10;96.80
41447;DHT22;27185;52.040;4.490;2023-03-01T12:29:34;11.80;93.90
41447;DHT22;27185;52.040;4.490;2023-03-01T12:51:14;12.80;84.20
41447;DHT22;27185;52.040;4.490;2023-03-01T12:54:14;12.70;83.60
41447;DHT22;27185;52.040;4.490;2023-03-01T12:57:09;12.70;85.00
41447;DHT22;27185;52.040;4.490;2023-03-01T13:00:11;12.70;86.40
41447;DHT22;27185;52.040;4.490;2023-03-01T13:03:31;12.80;86.90
41447;DHT22;27185;52.040;4.490;2023-03-01T13:06:41;13.10;86.30
41447;DHT22;27185;52.040;4.490;2023-03-01T13:09:34;13.30;87.00
41447;DHT22;27185;52.040;4.490;2023-03-01T13:15:32;13.50;86.60
41447;DHT22;27185;52.040;4.490;2023-03-01T13:21:10;13.80;85.00
41447;DHT22;27185;52.040;4.490;2023-03-01T13:23:56;13.90;83.70
41447;DHT22;27185;52.040;4.490;2023-03-01T13:29:55;14.10;80.80
41447;DHT22;27185;52.040;4.490;2023-03-01T13:32:41;14.10;82.10
41447;DHT22;27185;52.040;4.490;2023-03-01T13:38:44;14.40;84.10
41447;DHT22;27185;52.040;4.490;2023-03-01T13:44:36;14.60;81.70
41447;DHT22;27185;52.040;4.490;2023-03-01T13:47:24;14.50;76.90
41447;DHT22;27185;52.040;4.490;2023-03-01T13:50:19;14.30;74.70
41447;DHT22;27185;52.040;4.490;2023-03-01T13:53:06;14.20;73.50
41447;DHT22;27185;52.040;4.490;2023-03-01T13:55:58;14.00;73.60
41447;DHT22;27185;52.040;4.490;2023-03-01T13:58:54;13.80;74.20
41447;DHT22;27185;52.040;4.490;2023-03-01T14:01:41;13.80;76.00
41447;DHT22;27185;52.040;4.490;2023-03-01T14:04:32;13.70;76.20
41447;DHT22;27185;52.040;4.490;2023-03-01T14:07:23;13.70;76.60
41447;DHT22;27185;52.040;4.490;2023-03-01T14:10:14;13.80;77.20
41447;DHT22;27185;52.040;4.490;2023-03-01T14:19:24;14.10;80.40
41447;DHT22;27185;52.040;4.490;2023-03-01T14:22:24;14.00;76.70
41447;DHT22;27185;52.040;4.490;2023-03-01T14:25:29;14.10;75.20
41447;DHT22;27185;52.040;4.490;2023-03-01T14:28:20;14.00;75.50
41447;DHT22;27185;52.040;4.490;2023-03-01T14:31:42;14.00;77.10
41447;DHT22;27185;52.040;4.490;2023-03-01T14:34:28;14.00;76.30
41447;DHT22;27185;52.040;4.490;2023-03-01T14:37:21;13.80;72.30
41447;DHT22;27185;52.040;4.490;2023-03-01T14:40:22;13.60;72.00
41447;DHT22;27185;52.040;4.490;2023-03-01T14:43:11;13.50;73.30
41447;DHT22;27185;52.040;4.490;2023-03-01T14:45:57;13.40;74.90
41447;DHT22;27185;52.040;4.490;2023-03-01T14:48:43;13.50;76.00
41447;DHT22;27185;52.040;4.490;2023-03-01T14:51:29;13.40;77.00
41447;DHT22;27185;52.040;4.490;2023-03-01T14:57:15;13.50;78.10
41447;DHT22;27185;52.040;4.490;2023-03-01T15:00:05;13.40;76.30
41447;DHT22;27185;52.040;4.490;2023-03-01T15:02:53;13.50;76.10
41447;DHT22;27185;52.040;4.490;2023-03-01T15:05:41;13.50;76.70
41447;DHT22;27185;52.040;4.490;2023-03-01T15:08:27;13.50;77.20
41447;DHT22;27185;52.040;4.490;2023-03-01T15:11:32;13.60;78.70
41447;DHT22;27185;52.040;4.490;2023-03-01T15:14:41;13.70;76.50
41447;DHT22;27185;52.040;4.490;2023-03-01T15:20:17;13.70;75.70
41447;DHT22;27185;52.040;4.490;2023-03-01T15:23:06;13.70;75.80
41447;DHT22;27185;52.040;4.490;2023-03-01T15:26:02;13.70;75.50
41447;DHT22;27185;52.040;4.490;2023-03-01T15:28:51;13.70;74.60
41447;DHT22;27185;52.040;4.490;2023-03-01T15:31:37;13.60;73.90
41447;DHT22;27185;52.040;4.490;2023-03-01T15:34:31;13.40;72.20
41447;DHT22;27185;52.040;4.490;2023-03-01T15:37:44;13.30;73.50
41447;DHT22;27185;52.040;4.490;2023-03-01T15:40:32;13.20;73.10
41447;DHT22;27185;52.040;4.490;2023-03-01T15:43:45;13.10;71.90
41447;DHT22;27185;52.040;4.490;2023-03-01T15:46:34;12.90;70.90
41447;DHT22;27185;52.040;4.490;2023-03-01T15:49:37;12.80;72.40
41447;DHT22;27185;52.040;4.490;2023-03-01T15:52:25;12.80;74.10
41447;DHT22;27185;52.040;4.490;2023-03-01T15:55:20;12.80;73.40
41447;DHT22;27185;52.040;4.490;2023-03-01T15:58:12;12.80;74.10
41447;DHT22;27185;52.040;4.490;2023-03-01T16:00:58;12.70;73.60
41447;DHT22;27185;52.040;4.490;2023-03-01T16:03:44;12.70;73.80
41447;DHT22;27185;52.040;4.490;2023-03-01T16:06:30;12.60;73.10
41447;DHT22;27185;52.040;4.490;2023-03-01T16:09:16;12.60;73.60
41447;DHT22;27185;52.040;4.490;2023-03-01T16:12:01;12.50;73.90
41447;DHT22;27185;52.040;4.490;2023-03-01T16:14:47;12.50;76.00
41447;DHT22;27185;52.040;4.490;2023-03-01T16:17:33;12.50;73.30
41447;DHT22;27185;52.040;4.490;2023-03-01T16:20:20;12.40;72.80
41447;DHT22;27185;52.040;4.490;2023-03-01T16:23:07;12.30;73.70
41447;DHT22;27185;52.040;4.490;2023-03-01T16:25:53;12.30;73.70
41447;DHT22;27185;52.040;4.490;2023-03-01T16:28:42;12.10;72.80
41447;DHT22;27185;52.040;4.490;2023-03-01T16:31:28;11.90;73.10
41447;DHT22;27185;52.040;4.490;2023-03-01T16:34:14;11.60;72.50
41447;DHT22;27185;52.040;4.490;2023-03-01T16:37:00;11.30;73.30
41447;DHT22;27185;52.040;4.490;2023-03-01T16:39:45;11.10;74.80
41447;DHT22;27185;52.040;4.490;2023-03-01T16:42:35;10.80;75.80
41447;DHT22;27185;52.040;4.490;2023-03-01T16:45:21;10.50;76.80
41447;DHT22;27185;52.040;4.490;2023-03-01T16:48:06;10.30;77.50
41447;DHT22;27185;52.040;4.490;2023-03-01T16:50:57;10.10;78.20
41447;DHT22;27185;52.040;4.490;2023-03-01T16:53:43;9.80;78.90
41447;DHT22;27185;52.040;4.490;2023-03-01T16:56:29;9.60;79.60
41447;DHT22;27185;52.040;4.490;2023-03-01T16:59:15;9.40;80.00
41447;DHT22;27185;52.040;4.490;2023-03-01T17:02:00;9.30;81.00
41447;DHT22;27185;52.040;4.490;2023-03-01T17:04:53;9.20;81.60
41447;DHT22;27185;52.040;4.490;2023-03-01T17:07:39;9.00;82.40
41447;DHT22;27185;52.040;4.490;2023-03-01T17:10:25;8.90;83.30
41447;DHT22;27185;52.040;4.490;2023-03-01T17:13:11;8.80;83.70
41447;DHT22;27185;52.040;4.490;2023-03-01T17:15:56;8.70;84.60
41447;DHT22;27185;52.040;4.490;2023-03-01T17:18:42;8.60;85.20
41447;DHT22;27185;52.040;4.490;2023-03-01T17:21:28;8.50;86.10
41447;DHT22;27185;52.040;4.490;2023-03-01T17:24:14;8.40;86.80
41447;DHT22;27185;52.040;4.490;2023-03-01T17:26:59;8.30;87.70
41447;DHT22;27185;52.040;4.490;2023-03-01T17:29:45;8.30;88.50
41447;DHT22;27185;52.040;4.490;2023-03-01T17:32:31;8.20;89.30
41447;DHT22;27185;52.040;4.490;2023-03-01T17:35:16;8.10;90.10
41447;DHT22;27185;52.040;4.490;2023-03-01T17:38:03;8.00;90.40
41447;DHT22;27185;52.040;4.490;2023-03-01T17:40:49;7.90;90.80
41447;DHT22;27185;52.040;4.490;2023-03-01T17:43:34;7.90;91.00
41447;DHT22;27185;52.040;4.490;2023-03-01T17:46:20;7.80;91.40
41447;DHT22;27185;52.040;4.490;2023-03-01T17:49:06;7.70;91.70
41447;DHT22;27185;52.040;4.490;2023-03-01T17:51:52;7.70;92.00
41447;DHT22;27185;52.040;4.490;2023-03-01T17:54:37;7.60;92.30
41447;DHT22;27185;52.040;4.490;2023-03-01T17:57:23;7.50;92.70
41447;DHT22;27185;52.040;4.490;2023-03-01T18:00:10;7.50;93.00
41447;DHT22;27185;52.040;4.490;2023-03-01T18:02:57;7.40;93.30
41447;DHT22;27185;52.040;4.490;2023-03-01T18:05:43;7.30;93.60
41447;DHT22;27185;52.040;4.490;2023-03-01T18:08:28;7.30;93.90
41447;DHT22;27185;52.040;4.490;2023-03-01T18:11:14;7.20;94.20
41447;DHT22;27185;52.040;4.490;2023-03-01T18:13:59;7.20;94.50
41447;DHT22;27185;52.040;4.490;2023-03-01T18:16:45;7.10;94.80
41447;DHT22;27185;52.040;4.490;2023-03-01T18:19:31;7.10;95.00
41447;DHT22;27185;52.040;4.490;2023-03-01T18:22:17;7.00;95.30
41447;DHT22;27185;52.040;4.490;2023-03-01T18:25:03;7.00;95.40
41447;DHT22;27185;52.040;4.490;2023-03-01T18:27:49;7.00;95.60
41447;DHT22;27185;52.040;4.490;2023-03-01T18:30:35;7.00;95.80
41447;DHT22;27185;52.040;4.490;2023-03-01T18:33:20;6.90;96.00
41447;DHT22;27185;52.040;4.490;2023-03-01T18:36:18;6.90;96.30
41447;DHT22;27185;52.040;4.490;2023-03-01T18:39:05;6.80;96.20
41447;DHT22;27185;52.040;4.490;2023-03-01T18:41:50;6.80;96.40
41447;DHT22;27185;52.040;4.490;2023-03-01T18:44:36;6.70;96.50
41447;DHT22;27185;52.040;4.490;2023-03-01T18:47:22;6.60;96.90
41447;DHT22;27185;52.040;4.490;2023-03-01T18:50:08;6.60;97.20
41447;DHT22;27185;52.040;4.490;2023-03-01T18:52:54;6.50;97.50
41447;DHT22;27185;52.040;4.490;2023-03-01T18:55:40;6.50;97.90
41447;DHT22;27185;52.040;4.490;2023-03-01T18:58:25;6.40;98.10
41447;DHT22;27185;52.040;4.490;2023-03-01T19:01:14;6.40;98.30
41447;DHT22;27185;52.040;4.490;2023-03-01T19:04:00;6.40;98.40
41447;DHT22;27185;52.040;4.490;2023-03-01T19:06:46;6.40;98.60
41447;DHT22;27185;52.040;4.490;2023-03-01T19:09:32;6.30;98.60
41447;DHT22;27185;52.040;4.490;2023-03-01T19:12:17;6.30;98.80
41447;DHT22;27185;52.040;4.490;2023-03-01T19:15:04;6.30;98.80
41447;DHT22;27185;52.040;4.490;2023-03-01T19:17:49;6.30;99.00
41447;DHT22;27185;52.040;4.490;2023-03-01T19:20:35;6.20;99.10
41447;DHT22;27185;52.040;4.490;2023-03-01T19:23:21;6.10;99.20
41447;DHT22;27185;52.040;4.490;2023-03-01T19:26:08;6.10;99.40
41447;DHT22;27185;52.040;4.490;2023-03-01T19:28:55;6.10;99.60
41447;DHT22;27185;52.040;4.490;2023-03-01T19:31:40;6.00;99.70
41447;DHT22;27185;52.040;4.490;2023-03-01T19:34:26;6.00;99.90
41447;DHT22;27185;52.040;4.490;2023-03-01T19:37:12;5.90;99.90
41447;DHT22;27185;52.040;4.490;2023-03-01T19:39:57;5.90;99.90
41447;DHT22;27185;52.040;4.490;2023-03-01T19:42:44;5.90;99.90